Time;durP1;ratioP1;P1;durP2;ratioP2;P2;SDS_P1;SDS_P2;PMS_P1;PMS_P2;Temp;Humidity;BMP_temperature;BMP_pressure;BME280_temperature;BME280_humidity;BME280_pressure;Samples;Min_cycle;Max_cycle;Signal;HPM_P1;HPM_P2
2023/01/05 00:01:34;;;;;;;0.83;0.83;;;10.70;90.20;;;10.48;78.79;98139.41;5073114;28;20496;-78
2023/01/05 00:04:01;;;;;;;0.73;0.73;;;10.70;90.30;;;10.49;79.42;98144.56;5085740;28;20457;-85
2023/01/05 00:06:28;;;;;;;0.80;0.80;;;10.60;90.50;;;10.38;79.31;98145.19;5093370;28;20452;-76
2023/01/05 00:08:55;;;;;;;1.20;0.80;;;10.60;90.40;;;10.30;80.15;98126.53;5086442;28;21006;-79
2023/01/05 00:22:32;;;;;;;1.03;0.90;;;10.20;94.90;;;9.87;86.00;98139.44;5082709;28;20451;-77
2023/01/05 00:25:02;;;;;;;2.03;0.97;;;10.10;96.00;;;9.88;86.17;98130.31;5086139;28;20463;-83
2023/01/05 00:27:30;;;;;;;1.70;1.00;;;10.10;96.60;;;9.83;86.58;98126.56;5068968;28;20490;-78
2023/01/05 00:29:58;;;;;;;1.93;1.47;;;10.00;97.00;;;9.73;87.47;98121.59;5086656;28;20454;-81
2023/01/05 00:32:27;;;;;;;2.40;0.83;;;10.00;97.00;;;9.77;86.96;98120.97;5067522;28;20523;-80
2023/01/05 00:34:55;;;;;;;1.07;0.83;;;10.00;97.20;;;9.86;87.08;98118.88;5082729;28;20456;-76
2023/01/05 00:37:23;;;;;;;1.10;0.73;;;10.00;97.30;;;9.90;87.08;98119.31;5065362;28;20471;-77
2023/01/05 00:39:51;;;;;;;1.43;0.90;;;10.00;98.00;;;9.83;87.50;98116.63;5088391;28;20466;-77
2023/01/05 00:42:19;;;;;;;1.20;1.10;;;10.00;98.20;;;9.82;87.15;98116.81;5066095;28;20505;-76
2023/01/05 00:44:46;;;;;;;1.87;1.00;;;10.00;98.10;;;9.76;87.59;98104.97;5083934;28;20510;-80
2023/01/05 00:47:13;;;;;;;1.43;1.33;;;10.00;99.00;;;9.80;86.71;98114.34;5085559;28;20470;-79
2023/01/05 00:49:42;;;;;;;0.97;0.97;;;10.00;97.80;;;9.83;87.79;98121.16;5090728;28;20454;-77
2023/01/05 00:52:10;;;;;;;1.13;1.03;;;10.00;98.40;;;9.86;87.65;98104.59;5070918;28;20806;-79
2023/01/05 00:54:37;;;;;;;0.80;0.70;;;10.00;98.90;;;9.84;87.34;98093.97;5090201;28;20940;-79
2023/01/05 00:57:06;;;;;;;0.80;0.77;;;10.00;98.50;;;9.89;86.89;98096.88;5079264;28;20460;-81
2023/01/05 00:59:33;;;;;;;1.80;1.10;;;10.00;98.10;;;9.98;86.91;98091.28;5086964;28;20539;-77
2023/01/05 01:02:00;;;;;;;1.00;0.77;;;10.00;98.50;;;9.86;86.89;98075.72;5071063;28;20565;-80
2023/01/05 01:04:28;;;;;;;1.10;1.00;;;10.10;97.60;;;9.83;87.14;98078.84;5087292;28;20458;-79
2023/01/05 01:06:56;;;;;;;1.67;1.10;;;10.10;97.80;;;9.54;88.25;98043.16;5088346;28;20454;-77
2023/01/05 01:09:24;;;;;;;0.70;0.70;;;10.10;98.90;;;9.84;88.31;98095.84;5088366;28;20463;-76
2023/01/05 01:11:51;;;;;;;0.90;0.90;;;10.00;99.90;;;9.77;88.77;98093.13;5073803;28;20543;-77
2023/01/05 01:14:18;;;;;;;1.53;1.07;;;10.00;99.90;;;9.75;88.84;98092.53;5088777;28;20436;-74
2023/01/05 01:16:45;;;;;;;1.10;1.10;;;10.00;99.60;;;9.75;88.81;98085.28;5092342;28;20436;-77
2023/01/05 01:19:15;;;;;;;1.33;1.10;;;10.00;99.90;;;9.41;88.82;98032.38;5070897;28;20443;-75
2023/01/05 01:21:43;;;;;;;0.80;0.80;;;10.00;99.90;;;9.71;88.90;98083.19;5075810;28;20492;-78
2023/01/05 01:24:16;;;;;;;1.20;0.80;;;10.00;99.90;;;9.81;89.17;98101.66;5070044;28;20459;-78
2023/01/05 01:26:44;;;;;;;2.33;0.90;;;10.00;99.90;;;9.77;88.72;98094.00;5073337;28;20455;-79
2023/01/05 01:29:11;;;;;;;1.10;0.80;;;10.00;99.10;;;9.72;88.66;98060.56;5086700;28;20470;-78
2023/01/05 01:31:39;;;;;;;1.03;0.63;;;10.00;98.40;;;9.76;87.46;98078.84;5091111;28;20470;-76
2023/01/05 01:34:06;;;;;;;0.77;0.77;;;10.10;97.60;;;9.69;88.01;98056.41;5084948;28;20439;-79
2023/01/05 01:36:33;;;;;;;0.90;0.77;;;10.00;97.80;;;9.71;88.28;98053.53;5071752;28;21342;-76
2023/01/05 01:39:00;;;;;;;0.80;0.73;;;10.00;97.70;;;9.70;88.21;98051.88;5089137;28;20484;-76
2023/01/05 01:41:29;;;;;;;0.73;0.73;;;10.00;97.50;;;9.42;87.68;97996.28;5083894;28;20460;-78
2023/01/05 01:43:58;;;;;;;1.87;0.70;;;10.10;97.10;;;9.72;87.95;98039.00;5068287;28;20554;-78
2023/01/05 01:46:27;;;;;;;1.43;0.87;;;10.10;97.20;;;9.74;88.18;98053.09;5089175;28;20452;-74
2023/01/05 01:48:59;;;;;;;0.87;0.70;;;10.10;97.40;;;9.71;88.01;98034.63;5070839;28;20530;-77
2023/01/05 01:51:32;;;;;;;0.80;0.70;;;10.10;97.90;;;9.84;87.29;98039.16;5084872;28;20478;-81
2023/01/05 01:54:03;;;;;;;0.60;0.60;;;10.10;97.70;;;9.98;86.89;98048.09;5088738;28;20505;-78
2023/01/05 01:56:37;;;;;;;1.10;1.00;;;10.10;97.90;;;10.04;86.84;98045.38;5068837;28;20455;-80
2023/01/05 01:59:04;;;;;;;0.67;0.67;;;10.10;97.50;;;9.92;88.05;98050.56;5068561;28;20492;-78
2023/01/05 02:01:32;;;;;;;1.33;0.60;;;10.10;97.70;;;9.92;86.97;98045.16;5087889;28;20485;-79
2023/01/05 02:04:02;;;;;;;0.60;0.57;;;10.10;97.40;;;10.04;87.19;98041.84;5086217;28;21014;-78
2023/01/05 02:06:29;;;;;;;1.03;0.80;;;10.20;97.00;;;9.96;86.77;98042.06;5088329;28;20547;-81
2023/01/05 02:08:57;;;;;;;0.80;0.73;;;10.20;96.90;;;9.95;86.88;98043.13;5082467;28;20526;-79
2023/01/05 02:11:43;;;;;;;0.90;0.87;;;10.20;97.00;;;9.52;87.75;97985.91;5071097;28;20514;-76
2023/01/05 02:14:24;;;;;;;0.87;0.73;;;10.20;97.30;;;9.91;88.51;98048.91;5086909;28;20878;-78
2023/01/05 02:17:08;;;;;;;0.43;0.43;;;10.10;97.80;;;9.76;88.63;98034.81;5084590;28;21089;-76
2023/01/05 02:20:24;;;;;;;0.50;0.50;;;10.10;99.10;;;9.81;88.34;98026.94;5097121;28;20497;-78
2023/01/05 02:23:27;;;;;;;0.70;0.70;;;10.10;99.60;;;9.82;87.95;98031.31;5084098;28;20919;-77
2023/01/05 02:26:26;;;;;;;1.57;0.70;;;10.10;99.50;;;9.95;88.18;98037.72;5065885;28;20450;-77
2023/01/05 02:29:37;;;;;;;0.60;0.57;;;10.10;98.80;;;9.90;88.75;98036.47;5088088;28;20853;-76
2023/01/05 02:32:13;;;;;;;0.70;0.50;;;10.10;99.20;;;9.84;88.46;98023.81;5086175;28;20480;-77
2023/01/05 02:34:49;;;;;;;0.70;0.70;;;10.10;99.20;;;9.81;88.22;98036.91;5081809;28;20451;-78
2023/01/05 02:37:26;;;;;;;1.07;0.60;;;10.10;99.30;;;10.00;88.31;98035.22;5088878;28;20506;-76
2023/01/05 02:39:58;;;;;;;0.77;0.77;;;10.20;99.20;;;9.63;88.71;97971.78;5088069;28;20868;-76
2023/01/05 02:42:28;;;;;;;0.60;0.53;;;10.20;98.70;;;9.98;88.66;98015.69;5084038;28;20925;-76
2023/01/05 02:44:55;;;;;;;0.80;0.73;;;10.20;99.40;;;9.94;87.93;98009.88;5088904;28;20511;-79
2023/01/05 02:47:40;;;;;;;0.90;0.60;;;10.20;98.40;;;10.07;87.86;98009.84;5088791;28;20844;-75
2023/01/05 02:50:14;;;;;;;0.60;0.60;;;10.20;99.00;;;9.99;88.34;98009.25;5088426;28;20541;-76
2023/01/05 02:52:48;;;;;;;0.70;0.70;;;10.30;98.30;;;10.09;88.22;98001.56;5089505;28;20474;-78
2023/01/05 02:55:19;;;;;;;1.27;0.87;;;10.30;98.60;;;10.15;87.93;97998.00;5088967;28;20447;-80
2023/01/05 02:57:54;;;;;;;0.77;0.50;;;10.30;98.20;;;10.19;87.38;97993.81;5070238;28;20533;-76
2023/01/05 03:00:27;;;;;;;0.73;0.40;;;10.30;98.40;;;10.07;87.95;97999.06;5085081;28;20453;-76
2023/01/05 03:03:01;;;;;;;0.67;0.57;;;10.30;98.40;;;10.15;88.60;97989.88;5088915;28;20471;-78
2023/01/05 03:05:33;;;;;;;0.50;0.50;;;10.40;98.20;;;10.07;87.77;97982.84;5070423;28;21094;-77
2023/01/05 03:08:06;;;;;;;0.87;0.40;;;10.40;97.90;;;10.26;87.22;98001.06;5077948;28;20457;-74
2023/01/05 03:13:42;;;;;;;0.50;0.43;;;10.40;97.60;;;10.28;87.49;97999.00;5082127;28;20480;-77
2023/01/05 03:16:15;;;;;;;1.00;0.60;;;10.40;98.40;;;10.24;87.49;97992.38;5084343;28;20449;-78
2023/01/05 03:35:30;;;;;;;0.60;0.50;;;10.60;95.90;;;10.51;84.83;97976.03;5003223;28;20589;-77
2023/01/05 03:38:07;;;;;;;0.73;0.40;;;10.70;94.70;;;10.57;84.63;97965.22;5007067;28;20508;-78
2023/01/05 03:40:38;;;;;;;1.87;0.50;;;10.80;94.30;;;10.56;85.11;97963.56;5025073;28;20518;-77
2023/01/05 03:43:07;;;;;;;0.80;0.60;;;10.80;94.30;;;10.57;85.04;97967.09;5062809;28;20465;-79
2023/01/05 03:45:40;;;;;;;2.50;0.60;;;10.80;94.30;;;10.71;84.05;97957.88;5090406;28;20444;-78
2023/01/05 03:48:07;;;;;;;1.33;0.60;;;10.80;94.20;;;10.57;83.41;97946.28;5090369;28;20449;-80
2023/01/05 03:50:37;;;;;;;0.70;0.50;;;10.80;93.70;;;10.75;82.92;97955.53;5072531;28;20488;-81
2023/01/05 03:53:04;;;;;;;1.33;0.60;;;10.90;93.50;;;10.79;82.76;97950.53;5067703;28;20540;-81
2023/01/05 03:55:31;;;;;;;0.63;0.60;;;10.90;93.10;;;10.89;82.33;97964.41;5088850;28;20446;-80
2023/01/05 03:57:59;;;;;;;1.10;0.57;;;11.00;92.80;;;10.85;82.65;97952.38;5085551;28;20455;-79
2023/01/05 04:00:26;;;;;;;0.50;0.30;;;11.00;92.70;;;10.77;82.56;97959.69;5068522;28;20944;-81
2023/01/05 04:02:53;;;;;;;0.40;0.40;;;11.00;92.50;;;10.79;81.93;97939.72;5073213;28;20825;-78
2023/01/05 04:05:20;;;;;;;0.57;0.50;;;11.10;92.20;;;10.81;81.63;97927.66;5084088;28;20459;-78
2023/01/05 04:07:49;;;;;;;0.60;0.57;;;11.10;92.30;;;10.95;81.85;97955.41;5081746;28;20781;-77
2023/01/05 04:10:16;;;;;;;0.40;0.40;;;11.10;92.40;;;10.84;82.34;97937.19;5083803;28;20446;-77
2023/01/05 04:12:45;;;;;;;0.40;0.40;;;11.10;92.50;;;10.82;82.47;97939.28;5087843;28;20815;-82
2023/01/05 04:15:12;;;;;;;0.47;0.47;;;11.10;92.70;;;10.94;82.33;97966.44;5070665;28;20863;-82
2023/01/05 04:17:40;;;;;;;0.60;0.50;;;11.10;92.60;;;10.97;81.57;97969.53;5084280;28;20501;-79
2023/01/05 04:20:08;;;;;;;0.70;0.50;;;11.10;92.30;;;11.02;81.76;97980.53;5064183;28;20471;-82
2023/01/05 04:22:35;;;;;;;0.60;0.53;;;11.10;92.40;;;11.05;81.07;97974.66;5097450;28;21796;-74
2023/01/05 04:25:04;;;;;;;0.60;0.60;;;11.10;92.20;;;11.10;80.62;97984.00;5095277;28;20476;-76
2023/01/05 04:27:31;;;;;;;0.70;0.60;;;11.20;92.00;;;11.03;80.88;97974.06;5069458;28;20452;-80
2023/01/05 04:29:59;;;;;;;0.40;0.40;;;11.20;91.80;;;10.96;81.72;97965.16;5069893;28;20523;-78
2023/01/05 04:32:26;;;;;;;0.60;0.50;;;11.20;91.90;;;11.04;81.33;97967.59;5086433;28;20597;-77
2023/01/05 04:34:53;;;;;;;0.40;0.40;;;11.20;91.90;;;11.07;81.17;97969.06;5083441;28;20528;-78
2023/01/05 04:37:20;;;;;;;0.40;0.37;;;11.20;92.10;;;10.89;82.79;97967.09;5082976;28;20464;-76
2023/01/05 04:39:48;;;;;;;0.60;0.50;;;11.20;92.60;;;10.93;83.35;97981.00;5083432;28;20838;-78
2023/01/05 04:42:16;;;;;;;0.50;0.50;;;11.10;93.50;;;10.71;83.46;97957.88;5068808;28;20444;-80
2023/01/05 04:44:44;;;;;;;0.50;0.30;;;11.10;93.20;;;10.73;83.35;97958.47;5073384;28;20455;-80
2023/01/05 04:47:11;;;;;;;0.67;0.40;;;11.00;93.50;;;10.87;82.22;97974.59;5090557;28;20454;-78
2023/01/05 04:49:38;;;;;;;0.40;0.40;;;11.10;92.90;;;10.96;81.67;97981.38;5073015;28;20435;-75
2023/01/05 04:52:06;;;;;;;0.50;0.33;;;11.10;92.40;;;11.02;81.09;97991.34;5073188;28;20456;-79
2023/01/05 04:54:35;;;;;;;0.50;0.40;;;11.20;92.10;;;10.93;81.62;97989.94;5072720;28;20459;-76
2023/01/05 04:57:05;;;;;;;0.50;0.50;;;11.20;91.90;;;10.98;80.85;97983.88;5092767;28;20543;-77
2023/01/05 04:59:34;;;;;;;0.60;0.60;;;11.20;91.70;;;11.02;81.30;97996.75;5090935;28;20462;-76
2023/01/05 05:02:01;;;;;;;0.60;0.37;;;11.20;91.80;;;11.02;81.48;97998.59;5092208;28;20506;-76
2023/01/05 05:04:28;;;;;;;0.40;0.40;;;11.20;92.20;;;10.75;83.16;97999.63;5091204;28;20466;-83
2023/01/05 05:06:55;;;;;;;0.70;0.60;;;11.10;92.40;;;10.79;83.28;97999.16;5091176;28;20535;-76
2023/01/05 05:09:22;;;;;;;0.60;0.60;;;11.10;92.80;;;10.81;83.17;98014.13;5085629;28;20456;-75
2023/01/05 05:11:50;;;;;;;0.73;0.70;;;11.00;93.10;;;10.77;83.60;98027.25;5072692;28;21101;-81
2023/01/05 05:14:17;;;;;;;1.00;0.63;;;11.00;93.10;;;10.61;84.94;98012.38;5093669;28;20508;-81
2023/01/05 05:16:46;;;;;;;0.50;0.50;;;11.00;94.50;;;10.38;87.73;98029.06;5092823;28;22360;-76
2023/01/05 05:19:13;;;;;;;1.20;0.77;;;10.80;97.90;;;9.80;90.38;97984.81;5089609;28;20506;-78
2023/01/05 05:21:40;;;;;;;0.80;0.80;;;10.50;99.90;;;10.01;92.99;98053.06;5089591;28;20452;-80
2023/01/05 05:24:08;;;;;;;1.33;1.00;;;10.30;99.90;;;9.84;95.13;98056.19;5076202;28;21509;-76
2023/01/05 05:26:35;;;;;;;1.13;1.03;;;10.20;99.90;;;9.80;96.78;98063.06;5070287;28;20451;-77
2023/01/05 05:29:03;;;;;;;0.97;0.90;;;10.10;99.90;;;9.77;96.63;98063.47;5089868;28;20490;-77
2023/01/05 05:31:30;;;;;;;0.97;0.93;;;10.10;99.90;;;9.68;97.79;98070.94;5087456;28;20454;-78
2023/01/05 05:33:59;;;;;;;0.80;0.80;;;10.00;99.90;;;9.65;98.75;98074.06;5091441;28;20531;-78
2023/01/05 05:36:26;;;;;;;0.90;0.53;;;9.90;99.90;;;9.60;98.86;98069.28;5090030;28;20454;-78
2023/01/05 05:38:55;;;;;;;0.60;0.60;;;9.90;99.90;;;9.58;98.40;98076.75;5072600;28;20455;-79
2023/01/05 05:41:24;;;;;;;1.10;0.73;;;9.90;99.90;;;9.39;98.70;98075.72;5085494;28;20466;-78
2023/01/05 05:43:51;;;;;;;0.60;0.60;;;9.80;99.90;;;9.44;99.32;98088.56;5092731;28;20483;-80
2023/01/05 05:46:19;;;;;;;0.60;0.57;;;9.80;99.90;;;9.62;97.98;98090.66;5065731;28;20454;-79
2023/01/05 05:48:45;;;;;;;0.63;0.57;;;9.80;99.90;;;9.06;98.29;98034.22;5091167;28;20451;-81
2023/01/05 05:51:14;;;;;;;0.90;0.80;;;9.80;99.90;;;9.58;98.44;98111.00;5090291;28;20474;-76
2023/01/05 05:53:41;;;;;;;0.63;0.60;;;9.80;99.90;;;9.25;97.87;98091.06;5074409;28;20476;-76
2023/01/05 05:56:09;;;;;;;1.00;0.60;;;9.70;99.90;;;9.33;98.12;98125.91;5090472;28;20482;-78
2023/01/05 05:58:36;;;;;;;1.17;0.80;;;9.60;99.90;;;9.27;97.72;98124.03;5091148;28;20536;-78
2023/01/05 06:01:03;;;;;;;2.10;0.57;;;9.60;99.90;;;9.15;97.76;98096.00;5067367;28;20561;-78
2023/01/05 06:03:30;;;;;;;0.87;0.53;;;9.60;99.90;;;9.13;97.21;98122.34;5070926;28;20507;-79
2023/01/05 06:05:57;;;;;;;1.63;0.63;;;9.50;99.90;;;9.04;97.10;98108.22;5068640;28;20915;-75
2023/01/05 06:08:28;;;;;;;2.00;0.87;;;9.40;99.90;;;8.69;95.77;98066.03;5060960;28;20513;-69
2023/01/05 06:10:56;;;;;;;6.13;1.13;;;9.40;99.90;;;9.03;95.42;98118.19;5084561;28;20592;-69
2023/01/05 06:13:24;;;;;;;2.77;1.00;;;9.40;99.90;;;8.97;95.74;98135.13;5086171;28;20479;-70
2023/01/05 06:15:51;;;;;;;2.30;1.03;;;9.40;99.90;;;9.02;94.68;98138.09;5069673;28;20547;-70
2023/01/05 06:18:18;;;;;;;3.10;1.00;;;9.40;99.90;;;8.89;93.48;98148.81;5088795;28;20491;-70
2023/01/05 06:20:46;;;;;;;3.87;1.13;;;9.40;99.90;;;8.96;92.40;98157.72;5067087;28;20440;-71
2023/01/05 06:23:13;;;;;;;4.30;1.00;;;9.30;99.90;;;8.83;92.70;98155.84;5091572;28;20982;-71
2023/01/05 06:25:42;;;;;;;10.70;1.70;;;9.30;99.90;;;8.90;92.70;98161.25;5084207;28;20836;-72
2023/01/05 06:28:09;;;;;;;9.00;2.20;;;9.30;99.90;;;8.83;92.80;98155.84;5084994;28;20457;-71
2023/01/05 06:30:36;;;;;;;6.70;1.30;;;9.20;99.90;;;8.79;92.54;98150.00;5068140;28;21003;-71
2023/01/05 06:33:03;;;;;;;5.90;0.97;;;9.20;99.90;;;8.86;91.60;98151.88;5082476;28;20518;-71
2023/01/05 06:35:31;;;;;;;3.83;1.30;;;9.20;99.90;;;8.89;91.32;98154.19;5061143;28;20447;-71
2023/01/05 06:37:58;;;;;;;3.17;1.40;;;9.20;99.90;;;8.81;90.36;98140.88;5064971;28;20471;-71
2023/01/05 06:40:25;;;;;;;4.10;1.30;;;9.20;99.90;;;8.73;90.68;98117.66;5065467;28;20913;-71
2023/01/05 06:42:54;;;;;;;7.73;1.20;;;9.10;99.90;;;8.75;89.83;98126.34;5087479;28;20507;-71
2023/01/05 06:45:21;;;;;;;4.03;1.63;;;9.10;99.90;;;8.64;90.27;98119.69;5078010;28;20459;-71
2023/01/05 06:47:48;;;;;;;5.37;1.50;;;9.10;99.90;;;8.76;89.84;98145.03;5056504;28;20544;-72
2023/01/05 06:50:15;;;;;;;8.17;1.77;;;9.10;99.90;;;8.73;89.53;98144.59;5077205;28;20889;-71
2023/01/05 06:52:42;;;;;;;6.47;1.17;;;9.10;99.90;;;8.65;88.87;98148.28;5067711;28;20505;-71
2023/01/05 06:55:11;;;;;;;5.83;1.70;;;9.00;99.00;;;8.66;89.19;98149.94;5080861;28;20533;-71
2023/01/05 06:57:38;;;;;;;5.47;1.70;;;9.00;98.20;;;8.71;88.63;98160.13;5084673;28;20992;-70
2023/01/05 07:00:10;;;;;;;7.00;1.97;;;9.00;98.10;;;8.82;87.31;98153.31;5085723;28;20453;-69
2023/01/05 07:02:39;;;;;;;4.17;1.60;;;9.10;96.60;;;8.76;86.21;98154.94;5091121;28;20463;-70
2023/01/05 07:05:08;;;;;;;7.03;1.77;;;9.10;95.00;;;8.77;85.11;98162.00;5083494;28;20814;-70
2023/01/05 07:07:35;;;;;;;9.13;2.03;;;9.10;94.60;;;8.80;84.74;98153.53;5062804;28;20454;-70
2023/01/05 07:10:02;;;;;;;4.60;1.37;;;9.10;94.20;;;8.85;84.98;98164.53;5086356;28;20455;-71
2023/01/05 07:12:30;;;;;;;4.37;1.60;;;9.10;94.00;;;8.89;84.74;98164.97;5083873;28;20542;-67
2023/01/05 07:14:57;;;;;;;12.17;3.53;;;9.20;93.80;;;9.04;83.14;98171.03;5084142;28;20555;-67
2023/01/05 07:17:26;;;;;;;7.40;2.60;;;9.30;92.30;;;9.04;81.99;98152.19;5070428;28;20453;-67
2023/01/05 07:19:53;;;;;;;7.70;3.03;;;9.30;91.50;;;9.03;80.98;98155.06;5065073;28;20513;-69
2023/01/05 07:22:20;;;;;;;9.57;3.37;;;9.30;91.30;;;9.00;80.63;98167.06;5082269;28;20541;-68
2023/01/05 07:24:47;;;;;;;10.43;2.80;;;9.40;90.70;;;9.10;80.96;98171.25;5084044;28;21012;-68
2023/01/05 07:27:14;;;;;;;7.93;3.40;;;9.40;91.00;;;9.12;80.20;98174.59;5069076;28;20476;-67
2023/01/05 07:29:42;;;;;;;3.40;1.60;;;9.40;90.70;;;9.10;79.60;98182.03;5083124;28;20573;-70
2023/01/05 07:32:09;;;;;;;7.03;2.07;;;9.40;90.00;;;9.04;79.12;98191.75;5063561;28;20538;-70
2023/01/05 07:34:38;;;;;;;12.73;2.20;;;9.40;89.70;;;9.03;78.70;98199.03;5078686;28;20477;-70
2023/01/05 07:37:05;;;;;;;14.20;2.60;;;9.30;89.60;;;9.06;78.65;98201.31;5082194;28;20452;-71
2023/01/05 07:39:32;;;;;;;5.93;1.90;;;9.30;89.50;;;8.96;78.55;98200.03;5083288;28;20453;-71
2023/01/05 07:41:59;;;;;;;9.60;2.17;;;9.20;88.90;;;8.90;78.26;98215.97;5063493;28;20986;-70
2023/01/05 07:44:26;;;;;;;4.90;1.60;;;9.20;88.80;;;8.89;77.68;98224.25;5078492;28;20456;-69
2023/01/05 07:46:53;;;;;;;7.30;2.30;;;9.30;88.00;;;8.90;77.84;98228.63;5062002;28;20923;-70
2023/01/05 07:49:21;;;;;;;9.57;1.90;;;9.30;88.00;;;9.05;78.19;98229.31;5076357;28;20511;-69
2023/01/05 07:51:49;;;;;;;10.57;2.07;;;9.30;89.10;;;9.03;77.78;98231.38;5084379;28;20480;-72
2023/01/05 07:54:17;;;;;;;5.80;1.77;;;9.30;88.60;;;8.96;78.10;98235.88;5080523;28;20465;-70
2023/01/05 07:56:44;;;;;;;9.07;2.27;;;9.30;88.40;;;9.16;77.99;98235.13;5083215;28;20543;-70
2023/01/05 07:59:11;;;;;;;9.07;1.80;;;9.30;88.70;;;9.19;77.52;98240.16;5076705;28;20527;-71
2023/01/05 08:01:39;;;;;;;6.53;1.53;;;9.30;88.80;;;9.24;77.29;98245.75;5052427;28;21144;-70
2023/01/05 08:04:06;;;;;;;6.20;2.30;;;9.40;88.60;;;9.25;77.36;98255.50;5077920;28;20593;-70
2023/01/05 08:06:35;;;;;;;32.47;3.07;;;9.40;87.90;;;9.45;77.81;98254.75;5066997;28;21016;-70
2023/01/05 08:10:27;;;;;;;3.97;1.60;;;9.60;89.10;;;9.35;76.08;98265.91;5067140;28;20455;-70
2023/01/05 08:11:51;;;;;;;8.67;1.80;;;9.60;87.50;;;8.91;75.25;98200.63;5065660;28;20882;-70
2023/01/05 08:14:18;;;;;;;5.90;1.77;;;9.60;85.90;;;9.03;75.74;98234.06;5083982;28;21213;-70
2023/01/05 08:16:45;;;;;;;10.37;4.50;;;9.60;85.90;;;9.49;75.43;98272.22;5061630;28;20445;-71
2023/01/05 08:19:13;;;;;;;8.20;2.17;;;9.60;85.80;;;9.41;74.30;98269.69;5081528;28;20458;-70
2023/01/05 08:21:40;;;;;;;5.27;1.73;;;9.70;85.00;;;9.40;73.08;98274.25;5088856;28;20487;-70
2023/01/05 08:24:09;;;;;;;5.40;1.40;;;9.70;84.40;;;9.45;72.27;98289.81;5082891;28;20534;-70
2023/01/05 08:26:36;;;;;;;4.23;1.40;;;9.80;83.50;;;9.55;73.01;98274.09;5077382;28;20569;-70
2023/01/05 08:29:03;;;;;;;5.47;1.73;;;9.80;84.10;;;9.56;71.91;98293.81;5081455;28;20462;-70
2023/01/05 08:31:35;;;;;;;7.97;1.87;;;9.80;83.50;;;9.53;71.81;98295.03;5070711;28;20462;-70
2023/01/05 08:34:03;;;;;;;12.67;2.67;;;9.80;82.70;;;9.59;71.66;98296.91;5080043;28;20480;-69
2023/01/05 08:36:31;;;;;;;5.20;1.60;;;9.90;82.90;;;9.60;71.00;98298.56;5085463;28;20478;-70
2023/01/05 08:39:00;;;;;;;5.80;1.90;;;9.90;82.40;;;9.67;70.76;98297.78;5061196;28;20532;-70
2023/01/05 08:41:32;;;;;;;6.33;1.70;;;9.90;82.00;;;9.71;70.61;98301.72;5090347;28;20452;-70
2023/01/05 08:44:01;;;;;;;4.40;1.80;;;9.90;81.90;;;9.36;69.72;98251.41;5065351;28;20807;-69
2023/01/05 08:46:33;;;;;;;6.23;1.30;;;10.00;80.40;;;9.69;68.77;98318.13;5083135;28;20453;-70
2023/01/05 08:49:03;;;;;;;4.10;1.53;;;10.00;79.40;;;9.78;69.11;98307.97;5083680;28;20459;-70
2023/01/05 08:51:32;;;;;;;5.97;1.57;;;10.00;79.30;;;9.85;68.82;98300.75;5084412;28;20463;-69
2023/01/05 08:53:59;;;;;;;8.30;1.77;;;10.10;79.20;;;9.91;67.39;98313.41;5083813;28;20503;-70
2023/01/05 08:56:28;;;;;;;7.23;1.40;;;10.10;78.60;;;9.86;67.27;98293.50;5082215;28;20460;-70
2023/01/05 08:58:57;;;;;;;3.93;1.23;;;10.20;78.50;;;10.01;66.38;98306.78;5080003;28;20497;-71
2023/01/05 09:01:25;;;;;;;6.27;1.40;;;10.20;78.00;;;10.08;66.58;98307.63;5081724;28;20512;-70
2023/01/05 09:03:53;;;;;;;5.37;1.27;;;10.30;78.10;;;10.04;65.54;98315.31;5064590;28;20846;-69
2023/01/05 09:06:20;;;;;;;6.40;1.67;;;10.40;77.20;;;10.15;66.30;98305.78;5082425;28;20721;-70
2023/01/05 09:08:47;;;;;;;7.60;1.77;;;10.40;77.50;;;10.19;65.57;98314.31;5081386;28;20460;-70
2023/01/05 09:11:18;;;;;;;5.97;1.50;;;10.50;77.30;;;10.18;66.13;98313.47;5077988;28;20947;-70
2023/01/05 09:13:49;;;;;;;6.67;1.77;;;10.40;77.20;;;10.25;65.50;98323.47;5083478;28;20523;-70
2023/01/05 09:16:19;;;;;;;4.23;1.77;;;10.50;76.80;;;10.27;65.70;98324.91;5084811;28;20979;-69
2023/01/05 09:18:47;;;;;;;6.77;1.50;;;10.50;77.10;;;10.44;65.91;98335.31;5083084;28;20444;-70
2023/01/05 09:21:14;;;;;;;7.50;1.60;;;10.60;77.40;;;10.60;65.39;98339.50;5083104;28;20559;-71
2023/01/05 09:23:43;;;;;;;5.77;2.30;;;10.70;77.60;;;10.31;66.09;98328.03;5085149;28;20464;-70
2023/01/05 09:26:12;;;;;;;7.20;2.00;;;10.70;77.10;;;10.26;66.10;98335.91;5080238;28;20518;-70
2023/01/05 09:28:40;;;;;;;9.37;2.13;;;10.60;77.20;;;10.18;67.02;98337.75;5084758;28;20453;-70
2023/01/05 09:31:11;;;;;;;6.23;2.10;;;10.40;77.50;;;10.20;66.51;98322.19;5082042;28;20511;-70
2023/01/05 09:33:38;;;;;;;8.47;1.83;;;10.50;77.70;;;10.27;67.24;98342.97;5067704;28;20546;-69
2023/01/05 09:36:07;;;;;;;6.73;1.53;;;10.50;77.90;;;10.27;66.73;98337.59;5079952;28;20742;-69
2023/01/05 09:38:35;;;;;;;6.67;1.53;;;10.50;77.60;;;10.41;66.25;98341.16;5079908;28;20498;-70
2023/01/05 09:41:06;;;;;;;4.30;1.30;;;10.70;77.60;;;10.76;65.21;98347.19;5081996;28;20798;-76
2023/01/05 09:43:37;;;;;;;3.20;1.13;;;10.80;77.20;;;10.75;65.12;98339.28;5086202;28;20521;-70
2023/01/05 09:46:13;;;;;;;4.40;1.00;;;11.00;76.70;;;10.74;65.25;98349.28;5074385;28;20611;-71
2023/01/05 09:48:44;;;;;;;5.93;1.73;;;11.00;76.80;;;10.78;65.64;98338.88;5085203;28;20484;-70
2023/01/05 09:51:13;;;;;;;3.83;1.73;;;11.00;77.10;;;10.90;65.28;98330.97;5070689;28;21031;-70
2023/01/05 09:53:41;;;;;;;5.40;1.73;;;11.10;77.00;;;10.87;65.13;98344.91;5062968;28;20939;-73
2023/01/05 09:56:23;;;;;;;6.20;1.30;;;11.10;77.10;;;10.84;64.92;98332.63;5064998;28;20444;-71
2023/01/05 09:58:52;;;;;;;4.17;1.57;;;11.10;76.40;;;10.82;65.33;98331.16;5069263;28;20488;-74
2023/01/05 10:01:22;;;;;;;3.70;1.43;;;11.10;76.90;;;10.87;65.48;98334.91;5064995;28;20476;-71
2023/01/05 10:03:58;;;;;;;6.37;1.67;;;11.10;77.00;;;10.84;65.19;98348.00;5076952;28;20519;-72
2023/01/05 10:06:31;;;;;;;5.23;1.40;;;11.10;76.30;;;10.88;65.53;98343.88;5058800;28;20459;-73
2023/01/05 10:08:59;;;;;;;10.43;1.80;;;11.20;76.50;;;10.92;65.03;98342.41;5085038;28;20988;-73
2023/01/05 10:14:26;;;;;;;3.90;1.57;;;11.20;76.70;;;11.20;63.99;98358.34;5065811;28;20478;-73
2023/01/05 10:16:55;;;;;;;8.23;1.37;;;11.30;76.40;;;10.97;64.48;98358.81;5088210;28;20439;-72
2023/01/05 10:19:22;;;;;;;3.97;1.30;;;11.30;76.20;;;10.79;64.70;98351.34;5080462;28;20481;-74
2023/01/05 10:22:02;;;;;;;5.10;1.50;;;11.20;76.20;;;10.92;65.07;98350.50;5084059;28;20499;-72
2023/01/05 10:24:44;;;;;;;8.30;1.97;;;11.10;76.60;;;10.83;64.96;98349.03;5081874;28;20475;-72
2023/01/05 10:27:19;;;;;;;7.47;1.43;;;11.10;76.30;;;10.72;65.26;98348.66;5081852;28;20527;-73
2023/01/05 10:29:55;;;;;;;4.73;2.00;;;11.00;76.60;;;10.73;66.00;98347.63;5084538;28;20875;-72
2023/01/05 10:32:36;;;;;;;5.50;1.40;;;11.00;76.80;;;10.79;64.91;98345.09;5086047;28;20950;-70
2023/01/05 10:35:20;;;;;;;6.63;1.70;;;11.00;76.50;;;10.73;65.55;98335.97;5081906;28;20480;-72
2023/01/05 10:38:04;;;;;;;1.57;0.67;;;11.10;76.40;;;10.59;65.44;98362.97;5081230;28;20458;-72
2023/01/05 10:40:45;;;;;;;5.60;1.40;;;11.00;76.10;;;10.70;66.12;98341.78;5080017;28;20557;-71
2023/01/05 10:43:59;;;;;;;2.40;0.90;;;11.00;76.90;;;11.00;65.63;98350.31;5078547;28;20527;-72
2023/01/05 10:46:26;;;;;;;5.17;1.23;;;11.20;77.00;;;11.29;64.56;98350.03;5047263;28;20953;-72
2023/01/05 10:48:55;;;;;;;3.47;1.33;;;11.50;76.80;;;11.00;64.84;98342.19;5065201;28;20459;-72
2023/01/05 10:51:22;;;;;;;6.40;1.43;;;11.50;76.10;;;11.11;64.96;98347.97;5088222;28;20486;-72
2023/01/05 10:53:50;;;;;;;4.90;1.40;;;11.40;76.50;;;11.14;64.84;98355.66;5080686;28;21097;-73
2023/01/05 10:56:24;;;;;;;2.80;1.10;;;11.40;76.50;;;10.88;65.50;98343.88;5062378;28;20476;-71
2023/01/05 10:59:08;;;;;;;4.70;1.37;;;11.20;76.50;;;10.75;65.84;98350.94;5086660;28;20469;-71
2023/01/05 11:01:36;;;;;;;2.20;0.90;;;11.10;77.10;;;10.74;66.82;98357.38;5080528;28;20567;-72
2023/01/05 11:04:15;;;;;;;4.43;1.43;;;11.10;77.00;;;11.11;65.70;98364.19;5079472;28;20458;-68
2023/01/05 11:07:04;;;;;;;7.13;1.70;;;11.30;77.10;;;11.20;64.93;98352.13;5080138;28;20979;-72
2023/01/05 11:09:32;;;;;;;4.83;1.97;;;11.50;76.40;;;11.29;64.35;98361.66;5080681;28;20461;-72
2023/01/05 11:12:02;;;;;;;3.80;1.80;;;11.60;76.20;;;11.05;65.20;98355.06;5058174;28;20487;-72